Data for 01/30/2014

Time Sea-Level Adjusted Pressure Absolute Pressure Temperature Relative Humidity Dew Point   
(mb) (inHg) (mb) (inHg) (C) (F) (%) (C) (F)
00:05 1004 29.65 833 24.6 0.6 33 58 -6.8 19.8
00:10 1004 29.65 833 24.6 0.6 33 57 -7.1 19.3
00:15 1004 29.65 833 24.6 0.6 33.1 55 -7.5 18.5
00:20 1004 29.65 833 24.6 0.7 33.2 58 -6.6 20.2
00:25 1004 29.65 833 24.6 0.5 32.9 57 -7 19.5
00:30 1004 29.65 833 24.6 0.5 32.9 57 -7 19.4
00:35 1004 29.65 833 24.6 0.7 33.3 55 -7.3 18.8
00:40 1004 29.65 833 24.6 0.8 33.5 55 -7.1 19.1
00:45 1004 29.65 833 24.6 0.8 33.5 58 -6.4 20.4
00:50 1004 29.65 833 24.6 0.9 33.6 57 -6.6 20.1
00:55 1004 29.65 833 24.6 1 33.8 59 -6.2 20.8
01:00 1004 29.65 833 24.6 0.9 33.6 63 -5.4 22.3
01:05 1004 29.65 833 24.6 0.5 33 66 -5.1 22.9
01:10 1004 29.65 833 24.6 0.3 32.5 69 -4.7 23.5
01:15 1004 29.65 833 24.6 0 32 73 -4.3 24.3
01:20 1004 29.65 833 24.6 -0.2 31.6 73 -4.4 24.1
01:25 1004 29.65 833 24.6 -0.3 31.5 74 -4.4 24
01:30 1004 29.65 833 24.6 -0.3 31.4 74 -4.4 24
01:35 1004 29.65 833 24.6 -0.4 31.3 74 -4.4 24.1
01:40 1004 29.65 833 24.6 -0.4 31.3 74 -4.4 24.1
01:45 1004 29.65 833 24.6 -0.3 31.4 74 -4.4 24
01:50 1004 29.65 833 24.6 -0.3 31.4 73 -4.5 23.9
01:55 1004 29.65 833 24.6 -0.3 31.5 73 -4.5 23.8
02:00 1004 29.65 833 24.6 -0.3 31.5 72 -4.6 23.6
02:05 1004 29.65 833 24.6 -0.2 31.6 72 -4.7 23.6
02:10 1004 29.65 833 24.6 -0.2 31.6 72 -4.6 23.7
02:15 1004 29.65 833 24.6 -0.3 31.5 71 -4.8 23.3
02:20 1004 29.65 833 24.6 -0.2 31.7 71 -4.8 23.3
02:25 1004 29.65 833 24.6 -0.1 31.8 70 -4.9 23.2
02:30 1004 29.65 833 24.6 -0.1 31.8 71 -4.7 23.6
02:35 1004 29.65 833 24.6 -0.3 31.5 73 -4.6 23.7
02:40 1004 29.65 833 24.6 -0.3 31.5 72 -4.7 23.6
02:45 1004 29.65 833 24.6 -0.3 31.4 71 -4.9 23.2
02:50 1004 29.65 833 24.6 -0.3 31.5 71 -4.8 23.3
02:55 1004 29.65 833 24.6 -0.3 31.5 72 -4.7 23.5
03:00 1004 29.65 833 24.6 -0.3 31.5 74 -4.4 24
03:05 1004 29.65 833 24.6 -0.5 31.2 77 -4 24.8
03:10 1004 29.65 833 24.6 -0.7 30.7 80 -3.7 25.4
03:15 1004 29.65 833 24.6 -0.9 30.4 83 -3.5 25.7
03:20 1004 29.65 833 24.6 -1 30.2 86 -3.1 26.3
03:25 1004 29.65 833 24.6 -1.2 29.8 88 -2.9 26.8
03:30 1004 29.65 833 24.6 -1.4 29.4 91 -2.8 27
03:35 1004 29.65 833 24.6 -1.6 29.1 92 -2.7 27.1
03:40 1004 29.65 834 24.63 -1.7 29 93 -2.7 27.2
03:45 1004 29.65 834 24.63 -1.8 28.8 94 -2.7 27.2
03:50 1004 29.65 834 24.63 -1.8 28.8 94 -2.6 27.3
03:55 1004 29.65 834 24.63 -1.8 28.7 94 -2.6 27.3
04:00 1004 29.65 834 24.63 -1.8 28.8 94 -2.6 27.4
04:05 1004 29.65 834 24.63 -1.8 28.7 95 -2.5 27.4
04:10 1004 29.65 834 24.63 -1.8 28.8 95 -2.5 27.4
04:15 1004 29.65 834 24.63 -1.8 28.8 95 -2.5 27.5
04:20 1004 29.65 834 24.63 -1.8 28.8 95 -2.5 27.5
04:25 1004 29.65 834 24.63 -1.8 28.8 95 -2.5 27.5
04:30 1004 29.65 834 24.63 -1.8 28.8 95 -2.5 27.5
04:35 1004 29.65 834 24.63 -1.8 28.8 95 -2.5 27.6
04:40 1005 29.68 834 24.63 -1.8 28.8 95 -2.5 27.6
04:45 1005 29.68 834 24.63 -1.8 28.8 95 -2.4 27.7
04:50 1005 29.68 834 24.63 -1.7 28.9 95 -2.3 27.8
04:55 1005 29.68 834 24.63 -2.2 28.1 92 -3.3 26.1
05:00 1005 29.68 834 24.63 -3.2 26.2 89 -4.8 23.3
05:05 1005 29.68 834 24.63 -4 24.8 91 -5.3 22.4
05:10 1005 29.68 835 24.66 -4.2 24.4 89 -5.8 21.6
05:15 1006 29.71 835 24.66 -4.5 23.9 90 -5.9 21.4
05:20 1006 29.71 835 24.66 -5 22.9 88 -6.8 19.8
05:25 1006 29.71 835 24.66 -5.7 21.7 86 -7.6 18.3
05:30 1006 29.71 835 24.66 -6.3 20.7 88 -8 17.6
05:35 1006 29.71 835 24.66 -6.5 20.3 86 -8.5 16.8
05:40 1006 29.71 835 24.66 -6.7 19.9 86 -8.7 16.3
05:45 1006 29.71 835 24.66 -6.8 19.8 86 -8.7 16.3
05:50 1006 29.71 835 24.66 -6.9 19.5 86 -8.9 16.1
05:55 1006 29.71 835 24.66 -7.1 19.2 86 -9.1 15.7
06:00 1006 29.71 835 24.66 -7.3 18.9 86 -9.2 15.5
06:05 1006 29.71 835 24.66 -7.4 18.6 85 -9.6 14.7
06:10 1006 29.71 835 24.66 -7.5 18.4 83 -9.9 14.2
06:15 1006 29.71 836 24.69 -7.6 18.3 82 -10.2 13.6
06:20 1006 29.71 836 24.69 -7.6 18.3 80 -10.5 13.2
06:25 1006 29.71 836 24.69 -7.5 18.4 76 -11 12.2
06:30 1007 29.74 836 24.69 -7.5 18.5 77 -10.9 12.3
06:35 1007 29.74 836 24.69 -7.5 18.4 75 -11.2 11.9
06:40 1007 29.74 836 24.69 -7.8 18 75 -11.4 11.4
06:45 1007 29.74 836 24.69 -8.1 17.5 78 -11.3 11.7
06:50 1007 29.74 836 24.69 -8.2 17.2 78 -11.4 11.5
06:55 1007 29.74 836 24.69 -8.6 16.6 81 -11.3 11.6
07:00 1007 29.74 837 24.72 -8.8 16.2 82 -11.4 11.5
07:05 1007 29.74 837 24.72 -9.1 15.7 82 -11.6 11.1
07:10 1007 29.74 836 24.69 -9.2 15.4 82 -11.8 10.7
07:15 1007 29.74 837 24.72 -9.3 15.3 81 -12 10.3
07:20 1007 29.74 837 24.72 -9.4 15.2 80 -12.2 10
07:25 1007 29.74 837 24.72 -9.4 15.2 80 -12.3 9.9
07:30 1008 29.77 837 24.72 -9.4 15.1 78 -12.5 9.4
07:35 1008 29.77 837 24.72 -9.5 14.9 77 -12.8 9
07:40 1008 29.77 837 24.72 -9.7 14.6 75 -13.3 8
07:45 1008 29.77 837 24.72 -9.8 14.3 74 -13.6 7.5
07:50 1008 29.77 837 24.72 -10 14.1 75 -13.5 7.6
07:55 1008 29.77 837 24.72 -10 14 75 -13.7 7.4
08:00 1008 29.77 837 24.72 -9.9 14.1 75 -13.6 7.6
08:05 1008 29.77 837 24.72 -10 14.1 75 -13.7 7.4
08:10 1008 29.77 837 24.72 -10 14 75 -13.6 7.5
08:15 1008 29.77 837 24.72 -10.2 13.7 75 -13.8 7.1
08:20 1008 29.77 837 24.72 -10.3 13.5 75 -13.9 7
08:25 1008 29.77 838 24.75 -10.3 13.5 72 -14.3 6.2
08:30 1009 29.8 838 24.75 -10.3 13.5 72 -14.3 6.2
08:35 1009 29.8 838 24.75 -10.4 13.4 72 -14.5 5.9
08:40 1009 29.8 838 24.75 -10.4 13.3 72 -14.5 5.8
08:45 1009 29.8 838 24.75 -10.5 13.2 73 -14.5 6
08:50 1009 29.8 838 24.75 -10.5 13.2 74 -14.3 6.2
08:55 1009 29.8 838 24.75 -10.5 13.2 74 -14.3 6.2
09:00 1009 29.8 838 24.75 -10.5 13.2 73 -14.4 6.1
09:05 1009 29.8 838 24.75 -10.3 13.4 74 -14.1 6.6
09:10 1009 29.8 839 24.78 -10.1 13.7 73 -14.1 6.6
09:15 1010 29.83 839 24.78 -10.2 13.7 75 -13.8 7.2
09:20 1010 29.83 839 24.78 -10.2 13.6 74 -14.1 6.7
09:25 1010 29.83 839 24.78 -10.3 13.5 72 -14.4 6.1
09:30 1010 29.83 839 24.78 -10.4 13.2 77 -13.8 7.1
09:35 1010 29.83 839 24.78 -10.5 13.1 79 -13.5 7.7
09:40 1010 29.83 839 24.78 -10.6 12.9 81 -13.3 8
09:45 1010 29.83 839 24.78 -10.8 12.6 82 -13.2 8.2
09:50 1010 29.83 839 24.78 -11 12.2 84 -13.2 8.2
09:55 1010 29.83 839 24.78 -11.2 11.9 85 -13.2 8.2
10:00 1010 29.83 839 24.78 -11.3 11.7 87 -13.1 8.5
10:05 1010 29.83 839 24.78 -11.3 11.7 87 -13 8.7
10:10 1010 29.83 839 24.78 -11.2 11.9 87 -13 8.7
10:15 1010 29.83 839 24.78 -11.1 12 86 -13 8.7
10:20 1010 29.83 840 24.81 -11 12.3 85 -13 8.5
10:25 1010 29.83 840 24.81 -10.9 12.3 83 -13.2 8.2
10:30 1010 29.83 840 24.81 -10.6 12.9 81 -13.2 8.2
10:35 1010 29.83 840 24.81 -10.7 12.7 79 -13.6 7.5
10:40 1011 29.85 840 24.81 -10.5 13.2 75 -14.1 6.7
10:45 1011 29.85 840 24.81 -10.2 13.7 73 -14.1 6.6
10:50 1011 29.85 840 24.81 -10.2 13.7 71 -14.4 6
10:55 1011 29.85 840 24.81 -10 14 70 -14.4 6
11:00 1011 29.85 840 24.81 -10.2 13.7 70 -14.7 5.6
11:05 1011 29.85 840 24.81 -10.4 13.3 67 -15.4 4.3
11:10 1011 29.85 840 24.81 -10.5 13.2 68 -15.3 4.5
11:15 1011 29.85 840 24.81 -10.3 13.4 69 -15 5
11:20 1011 29.85 840 24.81 -10.3 13.5 69 -15 5
11:25 1011 29.85 840 24.81 -10.2 13.7 68 -15 5
11:30 1011 29.85 840 24.81 -10 14.1 67 -15 4.9
11:35 1011 29.85 840 24.81 -9.7 14.5 64 -15.4 4.3
11:40 1011 29.85 840 24.81 -9.5 14.8 62 -15.5 4
11:45 1011 29.85 840 24.81 -9.2 15.4 64 -14.9 5.2
11:50 1011 29.85 841 24.83 -9.4 15.1 63 -15.1 4.8
11:55 1011 29.85 841 24.83 -9.1 15.7 64 -14.8 5.4
12:00 1011 29.85 841 24.83 -8.5 16.8 60 -15 5.1
12:05 1011 29.85 841 24.83 -8.7 16.4 60 -15.1 4.9
12:10 1011 29.85 841 24.83 -9.1 15.7 71 -13.4 7.9
12:15 1011 29.85 841 24.83 -8.8 16.2 68 -13.7 7.4
12:20 1011 29.85 841 24.83 -8.2 17.3 68 -13.1 8.4
12:25 1011 29.85 841 24.83 -7.8 18 65 -13.2 8.2
12:30 1011 29.85 841 24.83 -7.7 18.1 68 -12.6 9.3
12:35 1011 29.85 841 24.83 -7.8 18 68 -12.6 9.3
12:40 1011 29.85 841 24.83 -8.3 17.1 70 -12.8 8.9
12:45 1011 29.85 841 24.83 -8.4 16.8 68 -13.3 8
12:50 1011 29.85 841 24.83 -8.6 16.5 70 -13.1 8.4
12:55 1011 29.85 841 24.83 -9.2 15.4 73 -13.2 8.2
13:00 1011 29.85 840 24.81 -9 15.7 72 -13.1 8.4
13:05 1011 29.85 840 24.81 -9.1 15.6 72 -13.3 8.1
13:10 1011 29.85 840 24.81 -8.9 16 70 -13.4 7.9
13:15 1011 29.85 840 24.81 -8.7 16.4 71 -13.1 8.4
13:20 1011 29.85 840 24.81 -8.5 16.7 68 -13.4 7.9
13:25 1011 29.85 840 24.81 -8.4 16.9 69 -13.1 8.4
13:30 1011 29.85 840 24.81 -8.3 17.1 68 -13.1 8.4
13:35 1011 29.85 840 24.81 -8 17.7 67 -13.1 8.4
13:40 1011 29.85 840 24.81 -7.9 17.8 67 -12.9 8.7
13:45 1011 29.85 840 24.81 -8.3 17.1 68 -13.1 8.4
13:50 1011 29.85 840 24.81 -8.3 17.1 68 -13.2 8.3
13:55 1011 29.85 840 24.81 -8.1 17.3 67 -13.3 8.1
14:00 1011 29.85 840 24.81 -8.3 17.1 68 -13.2 8.2
14:05 1011 29.85 840 24.81 -8.2 17.2 69 -12.9 8.8
14:10 1011 29.85 840 24.81 -8.5 16.7 69 -13.1 8.3
14:15 1011 29.85 840 24.81 -8.6 16.5 69 -13.3 8
14:20 1011 29.85 840 24.81 -8.7 16.3 69 -13.4 7.9
14:25 1011 29.85 840 24.81 -8.7 16.3 70 -13.2 8.3
14:30 1011 29.85 840 24.81 -8.4 17 68 -13.2 8.2
14:35 1011 29.85 840 24.81 -8.4 17 68 -13.2 8.3
14:40 1011 29.85 840 24.81 -8.3 17 68 -13.3 8.1
14:45 1011 29.85 840 24.81 -8.7 16.4 70 -13.2 8.2
14:50 1011 29.85 840 24.81 -8.3 17 67 -13.4 7.9
14:55 1011 29.85 840 24.81 -7.9 17.8 66 -13.2 8.2
15:00 1011 29.85 840 24.81 -7.7 18.1 65 -13.3 8.1
15:05 1011 29.85 840 24.81 -7.7 18.1 64 -13.4 7.8
15:10 1011 29.85 840 24.81 -7.7 18.1 65 -13.2 8.2
15:15 1011 29.85 840 24.81 -8.1 17.4 67 -13.2 8.2
15:20 1011 29.85 840 24.81 -8.7 16.3 69 -13.5 7.8
15:25 1011 29.85 840 24.81 -9 15.9 70 -13.6 7.6
15:30 1011 29.85 840 24.81 -9 15.9 70 -13.5 7.7
15:35 1011 29.85 840 24.81 -8.7 16.3 70 -13.3 8
15:40 1011 29.85 840 24.81 -9.1 15.7 71 -13.4 7.9
15:45 1011 29.85 840 24.81 -9.2 15.5 71 -13.5 7.8
15:50 1011 29.85 840 24.81 -9 15.8 69 -13.7 7.4
15:55 1011 29.85 840 24.81 -9.1 15.6 70 -13.6 7.6
16:00 1011 29.85 840 24.81 -9.1 15.6 71 -13.4 7.8
16:05 1011 29.85 840 24.81 -9.2 15.5 71 -13.6 7.6
16:10 1011 29.85 840 24.81 -9.2 15.5 70 -13.6 7.4
16:15 1011 29.85 840 24.81 -9.4 15.1 72 -13.6 7.6
16:20 1011 29.85 840 24.81 -9.6 14.7 72 -13.7 7.4
16:25 1011 29.85 840 24.81 -9.6 14.7 71 -13.9 7
16:30 1011 29.85 840 24.81 -9.6 14.8 72 -13.7 7.3
16:35 1011 29.85 840 24.81 -9.6 14.8 71 -13.9 7
16:40 1011 29.85 840 24.81 -9.9 14.2 74 -13.8 7.2
16:45 1011 29.85 840 24.81 -10.1 13.8 74 -13.9 7
16:50 1011 29.85 840 24.81 -10.5 13.1 75 -14.1 6.7
16:55 1011 29.85 840 24.81 -10.5 13.1 74 -14.2 6.4
17:00 1011 29.85 840 24.81 -10.5 13.1 74 -14.3 6.2
17:05 1011 29.85 840 24.81 -10.4 13.3 75 -14.1 6.6
17:10 1011 29.85 840 24.81 -10.5 13.2 74 -14.2 6.4
17:15 1011 29.85 840 24.81 -10.7 12.8 75 -14.3 6.2
17:20 1011 29.85 840 24.81 -10.6 12.9 75 -14.2 6.4
17:25 1011 29.85 840 24.81 -10.5 13.1 75 -14 6.7
17:30 1011 29.85 840 24.81 -10.5 13.1 75 -14.2 6.5
17:35 1011 29.85 840 24.81 -10.5 13.1 74 -14.3 6.3
17:40 1011 29.85 840 24.81 -10.5 13.1 75 -14.2 6.4
17:45 1011 29.85 840 24.81 -10.6 12.9 75 -14.2 6.5
17:50 1011 29.85 840 24.81 -10.5 13.1 75 -14.1 6.6
17:55 1011 29.85 840 24.81 -10.4 13.3 75 -13.9 6.9
18:00 1011 29.85 840 24.81 -10.4 13.3 75 -14.1 6.7
18:05 1011 29.85 840 24.81 -10.4 13.3 75 -14.1 6.6
18:10 1011 29.85 840 24.81 -10.4 13.2 76 -14 6.9
18:15 1011 29.85 840 24.81 -10.4 13.2 75 -14 6.8
18:20 1011 29.85 840 24.81 -10.4 13.2 74 -14.2 6.5
18:25 1011 29.85 840 24.81 -10.5 13.1 75 -14.1 6.7
18:30 1011 29.85 840 24.81 -10.5 13 76 -14.1 6.7
18:35 1011 29.85 840 24.81 -10.5 13.1 76 -14 6.7
18:40 1011 29.85 840 24.81 -10.6 12.9 76 -14.1 6.7
18:45 1011 29.85 840 24.81 -10.6 13 76 -14.1 6.6
18:50 1011 29.85 840 24.81 -10.7 12.8 76 -14.1 6.6
18:55 1011 29.85 840 24.81 -10.7 12.7 76 -14.1 6.6
19:00 1011 29.85 840 24.81 -10.8 12.6 76 -14.2 6.4
19:05 1011 29.85 840 24.81 -10.8 12.6 76 -14.3 6.3
19:10 1011 29.85 840 24.81 -10.8 12.5 75 -14.3 6.2
19:15 1011 29.85 840 24.81 -10.9 12.5 76 -14.4 6.1
19:20 1011 29.85 840 24.81 -11 12.1 78 -14.2 6.4
19:25 1011 29.85 840 24.81 -11 12.3 77 -14.3 6.3
19:30 1011 29.85 840 24.81 -11.1 12.1 78 -14.2 6.4
19:35 1011 29.85 840 24.81 -11.1 12 79 -14.1 6.6
19:40 1011 29.85 840 24.81 -11.1 12.1 78 -14.2 6.5
19:45 1011 29.85 840 24.81 -11.1 12.1 78 -14.2 6.4
19:50 1011 29.85 840 24.81 -11.1 12.1 78 -14.1 6.6
19:55 1011 29.85 840 24.81 -11.2 11.9 79 -14.1 6.7
20:00 1011 29.85 840 24.81 -11.1 12.1 79 -14 6.7
20:05 1011 29.85 840 24.81 -11 12.2 79 -13.9 7
20:10 1011 29.85 840 24.81 -10.9 12.4 79 -13.9 6.9
20:15 1011 29.85 840 24.81 -10.9 12.5 78 -14 6.8
20:20 1011 29.85 840 24.81 -11.2 11.9 79 -14.1 6.7
20:25 1011 29.85 840 24.81 -11.3 11.7 81 -13.9 7
20:30 1011 29.85 840 24.81 -11.3 11.7 82 -13.8 7.2
20:35 1011 29.85 840 24.81 -11.1 12 82 -13.7 7.4
20:40 1011 29.85 840 24.81 -11.1 12.1 81 -13.7 7.4
20:45 1011 29.85 840 24.81 -11.2 11.8 80 -14 6.7
20:50 1011 29.85 840 24.81 -11.5 11.3 82 -14 6.8
20:55 1011 29.85 840 24.81 -11.4 11.6 82 -13.8 7.1
21:00 1011 29.85 840 24.81 -11.3 11.6 83 -13.7 7.3
21:05 1011 29.85 840 24.81 -11.5 11.4 84 -13.6 7.5
21:10 1011 29.85 840 24.81 -11.3 11.7 84 -13.4 7.8
21:15 1011 29.85 840 24.81 -11.1 12.1 83 -13.5 7.8
21:20 1011 29.85 840 24.81 -11.1 12 83 -13.5 7.7
21:25 1011 29.85 840 24.81 -11.2 11.9 83 -13.5 7.6
21:30 1011 29.85 840 24.81 -11.2 11.8 83 -13.5 7.6
21:35 1011 29.85 840 24.81 -11.3 11.7 84 -13.5 7.6
21:40 1011 29.85 840 24.81 -11.2 11.8 84 -13.4 7.9
21:45 1011 29.85 840 24.81 -11.2 11.8 83 -13.5 7.7
21:50 1011 29.85 840 24.81 -11.2 11.9 84 -13.4 7.9
21:55 1011 29.85 840 24.81 -11.2 11.9 83 -13.5 7.8
22:00 1011 29.85 840 24.81 -11.2 11.8 85 -13.3 8.1
22:05 1011 29.85 840 24.81 -11.2 11.8 85 -13.3 8
22:10 1011 29.85 840 24.81 -11.2 11.8 85 -13.3 8.1
22:15 1011 29.85 840 24.81 -11.3 11.7 84 -13.4 7.9
22:20 1011 29.85 840 24.81 -11.4 11.6 86 -13.3 8
22:25 1011 29.85 840 24.81 -11.3 11.6 85 -13.3 8
22:30 1011 29.85 840 24.81 -11.3 11.6 85 -13.3 8.1
22:35 1011 29.85 840 24.81 -11.3 11.7 86 -13.2 8.2
22:40 1011 29.85 840 24.81 -11.2 11.8 86 -13.1 8.4
22:45 1011 29.85 840 24.81 -11.2 11.8 86 -13.1 8.3
22:50 1011 29.85 840 24.81 -11.3 11.7 87 -13.1 8.5
22:55 1011 29.85 840 24.81 -11.2 11.8 87 -13 8.6
23:00 1011 29.85 840 24.81 -11.2 11.8 86 -13.1 8.5
23:05 1011 29.85 840 24.81 -11.2 11.9 85 -13.2 8.3
23:10 1011 29.85 840 24.81 -11.3 11.7 86 -13.2 8.3
23:15 1011 29.85 840 24.81 -11.2 11.8 86 -13.1 8.4
23:20 1011 29.85 840 24.81 -11.2 11.8 85 -13.2 8.2
23:25 1011 29.85 840 24.81 -11.5 11.4 87 -13.2 8.2
23:30 1011 29.85 840 24.81 -11.4 11.4 87 -13.2 8.3
23:35 1011 29.85 840 24.81 -11.4 11.6 86 -13.2 8.2
23:40 1011 29.85 840 24.81 -11.4 11.5 86 -13.3 8
23:45 1011 29.85 840 24.81 -11.4 11.5 84 -13.5 7.7
23:50 1011 29.85 840 24.81 -11.4 11.6 85 -13.5 7.8
23:55 1011 29.85 840 24.81 -11.7 10.9 87 -13.5 7.7
24:00 1011 29.85 840 24.81 -11.8 10.8 87 -13.6 7.5